sensor_id;sensor_type;location;lat;lon;timestamp;temperature;humidity
33803;DHT22;20110;53.120;5.786;2023-05-18T00:01:11;2.90;1.00
33803;DHT22;20110;53.120;5.786;2023-05-18T00:03:39;2.80;1.00
33803;DHT22;20110;53.120;5.786;2023-05-18T00:06:05;2.80;1.00
33803;DHT22;20110;53.120;5.786;2023-05-18T00:08:36;2.80;1.00
33803;DHT22;20110;53.120;5.786;2023-05-18T00:11:05;2.80;1.00
33803;DHT22;20110;53.120;5.786;2023-05-18T00:13:31;2.80;1.00
33803;DHT22;20110;53.120;5.786;2023-05-18T00:15:57;2.70;1.00
33803;DHT22;20110;53.120;5.786;2023-05-18T00:18:23;2.80;1.00
33803;DHT22;20110;53.120;5.786;2023-05-18T00:20:50;2.70;1.00
33803;DHT22;20110;53.120;5.786;2023-05-18T00:23:29;2.70;1.00
33803;DHT22;20110;53.120;5.786;2023-05-18T00:25:59;2.70;1.00
33803;DHT22;20110;53.120;5.786;2023-05-18T00:28:27;2.80;1.00
33803;DHT22;20110;53.120;5.786;2023-05-18T00:30:55;2.70;1.00
33803;DHT22;20110;53.120;5.786;2023-05-18T00:33:21;2.70;1.00
33803;DHT22;20110;53.120;5.786;2023-05-18T00:35:47;2.60;1.00
33803;DHT22;20110;53.120;5.786;2023-05-18T00:38:13;2.60;1.00
33803;DHT22;20110;53.120;5.786;2023-05-18T00:40:40;2.70;1.00
33803;DHT22;20110;53.120;5.786;2023-05-18T00:43:06;2.70;1.00
33803;DHT22;20110;53.120;5.786;2023-05-18T00:45:32;2.80;1.00
33803;DHT22;20110;53.120;5.786;2023-05-18T00:47:58;2.90;16.80
33803;DHT22;20110;53.120;5.786;2023-05-18T00:50:24;3.10;57.30
33803;DHT22;20110;53.120;5.786;2023-05-18T00:52:50;3.00;51.10
33803;DHT22;20110;53.120;5.786;2023-05-18T00:55:17;3.10;66.80
33803;DHT22;20110;53.120;5.786;2023-05-18T00:57:44;3.10;68.70
33803;DHT22;20110;53.120;5.786;2023-05-18T01:00:13;3.20;60.20
33803;DHT22;20110;53.120;5.786;2023-05-18T01:02:40;3.20;71.90
33803;DHT22;20110;53.120;5.786;2023-05-18T01:05:11;3.30;73.50
33803;DHT22;20110;53.120;5.786;2023-05-18T01:07:38;3.30;62.00
33803;DHT22;20110;53.120;5.786;2023-05-18T01:10:12;3.40;31.20
33803;DHT22;20110;53.120;5.786;2023-05-18T01:15:18;3.40;1.00
33803;DHT22;20110;53.120;5.786;2023-05-18T01:18:10;3.40;1.00
33803;DHT22;20110;53.120;5.786;2023-05-18T01:21:10;3.40;1.00
33803;DHT22;20110;53.120;5.786;2023-05-18T01:24:21;3.50;1.00
33803;DHT22;20110;53.120;5.786;2023-05-18T01:26:54;3.50;1.00
33803;DHT22;20110;53.120;5.786;2023-05-18T01:29:25;3.50;1.00
33803;DHT22;20110;53.120;5.786;2023-05-18T01:31:54;3.50;1.00
33803;DHT22;20110;53.120;5.786;2023-05-18T01:34:21;3.50;1.00
33803;DHT22;20110;53.120;5.786;2023-05-18T01:36:47;3.50;1.00
33803;DHT22;20110;53.120;5.786;2023-05-18T01:39:13;3.50;1.00
33803;DHT22;20110;53.120;5.786;2023-05-18T01:41:58;3.50;1.00
33803;DHT22;20110;53.120;5.786;2023-05-18T01:44:37;3.50;1.00
33803;DHT22;20110;53.120;5.786;2023-05-18T01:47:09;3.60;1.00
33803;DHT22;20110;53.120;5.786;2023-05-18T01:50:03;3.60;1.00
33803;DHT22;20110;53.120;5.786;2023-05-18T01:55:10;3.70;1.00
33803;DHT22;20110;53.120;5.786;2023-05-18T01:57:41;3.70;1.00
33803;DHT22;20110;53.120;5.786;2023-05-18T02:00:11;3.70;1.00
33803;DHT22;20110;53.120;5.786;2023-05-18T02:02:37;3.70;1.00
33803;DHT22;20110;53.120;5.786;2023-05-18T02:05:03;3.80;1.00
33803;DHT22;20110;53.120;5.786;2023-05-18T02:07:31;3.90;1.00
33803;DHT22;20110;53.120;5.786;2023-05-18T02:09:56;3.90;1.00
33803;DHT22;20110;53.120;5.786;2023-05-18T02:12:22;3.90;1.00
33803;DHT22;20110;53.120;5.786;2023-05-18T02:14:48;4.00;1.00
33803;DHT22;20110;53.120;5.786;2023-05-18T02:17:14;4.00;1.00
33803;DHT22;20110;53.120;5.786;2023-05-18T02:19:39;4.10;1.00
33803;DHT22;20110;53.120;5.786;2023-05-18T02:22:06;4.10;1.00
33803;DHT22;20110;53.120;5.786;2023-05-18T02:24:33;4.20;1.00
33803;DHT22;20110;53.120;5.786;2023-05-18T02:26:59;4.20;1.00
33803;DHT22;20110;53.120;5.786;2023-05-18T02:29:25;4.20;1.00
33803;DHT22;20110;53.120;5.786;2023-05-18T02:31:51;4.20;1.00
33803;DHT22;20110;53.120;5.786;2023-05-18T02:34:17;4.30;1.00
33803;DHT22;20110;53.120;5.786;2023-05-18T02:36:44;4.30;1.00
33803;DHT22;20110;53.120;5.786;2023-05-18T02:39:10;4.30;1.00
33803;DHT22;20110;53.120;5.786;2023-05-18T02:41:37;4.40;99.90
33803;DHT22;20110;53.120;5.786;2023-05-18T02:44:04;4.40;99.90
33803;DHT22;20110;53.120;5.786;2023-05-18T02:46:31;4.40;99.90
33803;DHT22;20110;53.120;5.786;2023-05-18T02:48:57;4.40;99.90
33803;DHT22;20110;53.120;5.786;2023-05-18T02:51:24;4.40;99.90
33803;DHT22;20110;53.120;5.786;2023-05-18T02:53:50;4.40;99.90
33803;DHT22;20110;53.120;5.786;2023-05-18T02:56:17;4.50;99.90
33803;DHT22;20110;53.120;5.786;2023-05-18T02:58:43;4.50;99.90
33803;DHT22;20110;53.120;5.786;2023-05-18T03:01:09;4.60;99.90
33803;DHT22;20110;53.120;5.786;2023-05-18T03:03:37;4.60;99.90
33803;DHT22;20110;53.120;5.786;2023-05-18T03:06:04;4.60;99.90
33803;DHT22;20110;53.120;5.786;2023-05-18T03:08:32;4.70;99.90
33803;DHT22;20110;53.120;5.786;2023-05-18T03:10:58;4.70;99.90
33803;DHT22;20110;53.120;5.786;2023-05-18T03:13:24;4.80;99.90
33803;DHT22;20110;53.120;5.786;2023-05-18T03:15:50;4.80;99.90
33803;DHT22;20110;53.120;5.786;2023-05-18T03:18:17;4.80;99.90
33803;DHT22;20110;53.120;5.786;2023-05-18T03:20:46;4.80;99.90
33803;DHT22;20110;53.120;5.786;2023-05-18T03:23:11;4.90;99.90
33803;DHT22;20110;53.120;5.786;2023-05-18T03:25:37;4.90;99.90
33803;DHT22;20110;53.120;5.786;2023-05-18T03:28:04;4.80;99.90
33803;DHT22;20110;53.120;5.786;2023-05-18T03:30:34;4.80;99.90
33803;DHT22;20110;53.120;5.786;2023-05-18T03:33:00;4.80;99.90
33803;DHT22;20110;53.120;5.786;2023-05-18T03:35:27;4.80;99.90
33803;DHT22;20110;53.120;5.786;2023-05-18T03:37:53;4.80;99.90
33803;DHT22;20110;53.120;5.786;2023-05-18T03:40:20;4.80;99.90
33803;DHT22;20110;53.120;5.786;2023-05-18T03:42:46;4.90;99.90
33803;DHT22;20110;53.120;5.786;2023-05-18T03:45:12;5.00;99.90
33803;DHT22;20110;53.120;5.786;2023-05-18T03:47:38;5.10;99.90
33803;DHT22;20110;53.120;5.786;2023-05-18T03:50:06;5.10;99.90
33803;DHT22;20110;53.120;5.786;2023-05-18T03:52:33;5.10;99.90
33803;DHT22;20110;53.120;5.786;2023-05-18T03:55:03;5.10;99.90
33803;DHT22;20110;53.120;5.786;2023-05-18T03:57:30;5.10;99.90
33803;DHT22;20110;53.120;5.786;2023-05-18T03:59:56;5.20;99.90
33803;DHT22;20110;53.120;5.786;2023-05-18T04:02:23;5.20;99.90
33803;DHT22;20110;53.120;5.786;2023-05-18T04:04:49;5.30;99.90
33803;DHT22;20110;53.120;5.786;2023-05-18T04:07:18;5.40;99.90
33803;DHT22;20110;53.120;5.786;2023-05-18T04:09:49;5.50;99.90
33803;DHT22;20110;53.120;5.786;2023-05-18T04:12:16;5.50;99.90
33803;DHT22;20110;53.120;5.786;2023-05-18T04:14:42;5.50;99.90
33803;DHT22;20110;53.120;5.786;2023-05-18T04:17:17;5.60;99.90
33803;DHT22;20110;53.120;5.786;2023-05-18T04:19:47;5.60;99.90
33803;DHT22;20110;53.120;5.786;2023-05-18T04:22:14;5.60;99.90
33803;DHT22;20110;53.120;5.786;2023-05-18T04:24:41;5.60;99.90
33803;DHT22;20110;53.120;5.786;2023-05-18T04:27:08;5.70;99.90
33803;DHT22;20110;53.120;5.786;2023-05-18T04:29:34;5.80;99.90
33803;DHT22;20110;53.120;5.786;2023-05-18T04:32:05;5.80;99.90
33803;DHT22;20110;53.120;5.786;2023-05-18T04:34:32;5.90;99.90
33803;DHT22;20110;53.120;5.786;2023-05-18T04:37:05;5.80;99.90
33803;DHT22;20110;53.120;5.786;2023-05-18T04:39:32;5.80;99.90
33803;DHT22;20110;53.120;5.786;2023-05-18T04:41:59;5.80;99.90
33803;DHT22;20110;53.120;5.786;2023-05-18T04:44:30;5.90;99.90
33803;DHT22;20110;53.120;5.786;2023-05-18T04:46:59;5.90;99.90
33803;DHT22;20110;53.120;5.786;2023-05-18T04:49:25;6.00;99.90
33803;DHT22;20110;53.120;5.786;2023-05-18T04:51:54;6.10;99.90
33803;DHT22;20110;53.120;5.786;2023-05-18T04:54:25;6.10;99.90
33803;DHT22;20110;53.120;5.786;2023-05-18T04:56:52;6.20;99.90
33803;DHT22;20110;53.120;5.786;2023-05-18T04:59:19;6.20;99.90
33803;DHT22;20110;53.120;5.786;2023-05-18T05:01:45;6.30;99.90
33803;DHT22;20110;53.120;5.786;2023-05-18T05:04:11;6.30;99.90
33803;DHT22;20110;53.120;5.786;2023-05-18T05:06:37;6.30;99.90
33803;DHT22;20110;53.120;5.786;2023-05-18T05:09:03;6.40;99.90
33803;DHT22;20110;53.120;5.786;2023-05-18T05:11:29;6.60;99.90
33803;DHT22;20110;53.120;5.786;2023-05-18T05:13:55;6.70;99.90
33803;DHT22;20110;53.120;5.786;2023-05-18T05:16:21;6.70;99.90
33803;DHT22;20110;53.120;5.786;2023-05-18T05:18:47;6.80;99.90
33803;DHT22;20110;53.120;5.786;2023-05-18T05:21:13;6.80;99.90
33803;DHT22;20110;53.120;5.786;2023-05-18T05:23:39;6.80;99.90
33803;DHT22;20110;53.120;5.786;2023-05-18T05:26:05;6.80;99.90
33803;DHT22;20110;53.120;5.786;2023-05-18T05:28:31;6.90;99.90
33803;DHT22;20110;53.120;5.786;2023-05-18T05:30:57;7.00;99.90
33803;DHT22;20110;53.120;5.786;2023-05-18T05:33:23;7.10;99.90
33803;DHT22;20110;53.120;5.786;2023-05-18T05:35:48;7.20;99.90
33803;DHT22;20110;53.120;5.786;2023-05-18T05:38:14;7.20;97.20
33803;DHT22;20110;53.120;5.786;2023-05-18T05:40:40;7.20;99.90
33803;DHT22;20110;53.120;5.786;2023-05-18T05:43:06;7.30;99.90
33803;DHT22;20110;53.120;5.786;2023-05-18T05:45:32;7.40;73.00
33803;DHT22;20110;53.120;5.786;2023-05-18T05:47:58;7.50;21.00
33803;DHT22;20110;53.120;5.786;2023-05-18T05:50:23;7.50;1.00
33803;DHT22;20110;53.120;5.786;2023-05-18T05:52:49;7.70;1.00
33803;DHT22;20110;53.120;5.786;2023-05-18T05:55:15;7.80;1.00
33803;DHT22;20110;53.120;5.786;2023-05-18T05:57:41;7.80;1.00
33803;DHT22;20110;53.120;5.786;2023-05-18T06:00:11;7.80;1.00
33803;DHT22;20110;53.120;5.786;2023-05-18T06:02:37;7.90;1.00
33803;DHT22;20110;53.120;5.786;2023-05-18T06:05:05;7.80;1.00
33803;DHT22;20110;53.120;5.786;2023-05-18T06:07:32;7.80;1.00
33803;DHT22;20110;53.120;5.786;2023-05-18T06:09:58;7.60;1.00
33803;DHT22;20110;53.120;5.786;2023-05-18T06:12:24;7.70;1.00
33803;DHT22;20110;53.120;5.786;2023-05-18T06:14:50;7.90;99.90
33803;DHT22;20110;53.120;5.786;2023-05-18T06:17:19;8.00;99.90
33803;DHT22;20110;53.120;5.786;2023-05-18T06:19:44;8.10;99.90
33803;DHT22;20110;53.120;5.786;2023-05-18T06:22:10;8.30;99.90
33803;DHT22;20110;53.120;5.786;2023-05-18T06:24:37;8.40;99.90
33803;DHT22;20110;53.120;5.786;2023-05-18T06:27:03;8.80;99.90
33803;DHT22;20110;53.120;5.786;2023-05-18T06:29:29;8.90;99.90
33803;DHT22;20110;53.120;5.786;2023-05-18T06:31:56;9.10;99.90
33803;DHT22;20110;53.120;5.786;2023-05-18T06:34:22;9.20;99.90
33803;DHT22;20110;53.120;5.786;2023-05-18T06:36:48;9.10;99.90
33803;DHT22;20110;53.120;5.786;2023-05-18T06:39:13;9.50;99.90
33803;DHT22;20110;53.120;5.786;2023-05-18T06:41:39;9.40;99.90
33803;DHT22;20110;53.120;5.786;2023-05-18T06:44:05;9.20;99.90
33803;DHT22;20110;53.120;5.786;2023-05-18T06:46:31;9.00;99.90
33803;DHT22;20110;53.120;5.786;2023-05-18T06:48:57;9.40;99.90
33803;DHT22;20110;53.120;5.786;2023-05-18T06:51:23;9.60;99.90
33803;DHT22;20110;53.120;5.786;2023-05-18T06:53:49;9.50;99.90
33803;DHT22;20110;53.120;5.786;2023-05-18T06:56:15;9.60;99.90
33803;DHT22;20110;53.120;5.786;2023-05-18T06:58:42;9.60;99.90
33803;DHT22;20110;53.120;5.786;2023-05-18T07:01:08;10.00;99.90
33803;DHT22;20110;53.120;5.786;2023-05-18T07:03:35;10.30;99.90
33803;DHT22;20110;53.120;5.786;2023-05-18T07:06:02;10.70;99.90
33803;DHT22;20110;53.120;5.786;2023-05-18T07:08:29;11.00;99.90
33803;DHT22;20110;53.120;5.786;2023-05-18T07:10:56;11.30;99.90
33803;DHT22;20110;53.120;5.786;2023-05-18T07:13:23;11.50;99.90
33803;DHT22;20110;53.120;5.786;2023-05-18T07:15:49;11.70;99.90
33803;DHT22;20110;53.120;5.786;2023-05-18T07:18:15;11.80;99.90
33803;DHT22;20110;53.120;5.786;2023-05-18T07:20:41;11.90;99.90
33803;DHT22;20110;53.120;5.786;2023-05-18T07:23:07;12.00;99.90
33803;DHT22;20110;53.120;5.786;2023-05-18T07:25:34;12.10;99.90
33803;DHT22;20110;53.120;5.786;2023-05-18T07:28:00;12.30;99.90
33803;DHT22;20110;53.120;5.786;2023-05-18T07:30:26;12.50;99.90
33803;DHT22;20110;53.120;5.786;2023-05-18T07:32:52;12.40;99.90
33803;DHT22;20110;53.120;5.786;2023-05-18T07:35:18;12.40;99.90
33803;DHT22;20110;53.120;5.786;2023-05-18T07:37:44;12.40;99.90
33803;DHT22;20110;53.120;5.786;2023-05-18T07:40:11;12.50;99.90
33803;DHT22;20110;53.120;5.786;2023-05-18T07:42:38;12.50;99.90
33803;DHT22;20110;53.120;5.786;2023-05-18T07:45:05;12.70;99.90
33803;DHT22;20110;53.120;5.786;2023-05-18T07:47:32;12.80;99.90
33803;DHT22;20110;53.120;5.786;2023-05-18T07:49:58;12.60;99.90
33803;DHT22;20110;53.120;5.786;2023-05-18T07:52:24;12.80;99.90
33803;DHT22;20110;53.120;5.786;2023-05-18T07:54:52;12.90;99.90
33803;DHT22;20110;53.120;5.786;2023-05-18T07:57:19;13.00;99.90
33803;DHT22;20110;53.120;5.786;2023-05-18T07:59:45;13.10;99.90
33803;DHT22;20110;53.120;5.786;2023-05-18T08:02:11;13.10;99.90
33803;DHT22;20110;53.120;5.786;2023-05-18T08:04:37;13.20;99.90
33803;DHT22;20110;53.120;5.786;2023-05-18T08:07:03;13.40;99.90
33803;DHT22;20110;53.120;5.786;2023-05-18T08:09:29;13.70;99.90
33803;DHT22;20110;53.120;5.786;2023-05-18T08:11:58;13.70;99.90
33803;DHT22;20110;53.120;5.786;2023-05-18T08:14:24;13.50;99.90
33803;DHT22;20110;53.120;5.786;2023-05-18T08:16:50;13.60;99.90
33803;DHT22;20110;53.120;5.786;2023-05-18T08:19:16;13.70;99.90
33803;DHT22;20110;53.120;5.786;2023-05-18T08:21:42;13.80;99.90
33803;DHT22;20110;53.120;5.786;2023-05-18T08:24:10;14.00;99.90
33803;DHT22;20110;53.120;5.786;2023-05-18T08:26:36;14.30;99.90
33803;DHT22;20110;53.120;5.786;2023-05-18T08:29:02;14.50;99.90
33803;DHT22;20110;53.120;5.786;2023-05-18T08:31:37;14.10;99.90
33803;DHT22;20110;53.120;5.786;2023-05-18T08:34:05;13.80;99.90
33803;DHT22;20110;53.120;5.786;2023-05-18T08:36:33;13.90;99.90
33803;DHT22;20110;53.120;5.786;2023-05-18T08:39:00;14.30;99.90
33803;DHT22;20110;53.120;5.786;2023-05-18T08:41:47;14.20;99.90
33803;DHT22;20110;53.120;5.786;2023-05-18T08:44:21;13.30;99.90
33803;DHT22;20110;53.120;5.786;2023-05-18T08:46:51;13.70;99.90
33803;DHT22;20110;53.120;5.786;2023-05-18T08:49:18;14.10;99.90
33803;DHT22;20110;53.120;5.786;2023-05-18T08:51:52;14.50;99.90
33803;DHT22;20110;53.120;5.786;2023-05-18T08:54:23;14.60;99.90
33803;DHT22;20110;53.120;5.786;2023-05-18T08:56:49;13.80;99.90
33803;DHT22;20110;53.120;5.786;2023-05-18T08:59:25;14.20;99.90
33803;DHT22;20110;53.120;5.786;2023-05-18T09:01:55;13.70;99.90
33803;DHT22;20110;53.120;5.786;2023-05-18T09:04:21;14.10;99.90
33803;DHT22;20110;53.120;5.786;2023-05-18T09:06:48;14.20;99.90
33803;DHT22;20110;53.120;5.786;2023-05-18T09:09:16;14.30;99.90
33803;DHT22;20110;53.120;5.786;2023-05-18T09:11:43;14.60;99.90
33803;DHT22;20110;53.120;5.786;2023-05-18T09:14:11;14.90;99.90
33803;DHT22;20110;53.120;5.786;2023-05-18T09:16:37;14.90;99.90
33803;DHT22;20110;53.120;5.786;2023-05-18T09:19:03;14.70;99.90
33803;DHT22;20110;53.120;5.786;2023-05-18T09:21:30;14.80;99.90
33803;DHT22;20110;53.120;5.786;2023-05-18T09:23:58;15.10;99.90
33803;DHT22;20110;53.120;5.786;2023-05-18T09:26:24;15.10;99.90
33803;DHT22;20110;53.120;5.786;2023-05-18T09:28:53;15.10;99.90
33803;DHT22;20110;53.120;5.786;2023-05-18T09:31:20;14.90;99.90
33803;DHT22;20110;53.120;5.786;2023-05-18T09:33:48;14.80;99.90
33803;DHT22;20110;53.120;5.786;2023-05-18T09:36:16;15.00;99.90
33803;DHT22;20110;53.120;5.786;2023-05-18T09:38:51;15.10;99.90
33803;DHT22;20110;53.120;5.786;2023-05-18T09:41:17;15.20;99.90
33803;DHT22;20110;53.120;5.786;2023-05-18T09:43:46;15.20;99.90
33803;DHT22;20110;53.120;5.786;2023-05-18T09:46:13;15.40;99.90
33803;DHT22;20110;53.120;5.786;2023-05-18T09:48:45;15.50;99.90
33803;DHT22;20110;53.120;5.786;2023-05-18T09:51:13;15.30;99.90
33803;DHT22;20110;53.120;5.786;2023-05-18T09:53:46;14.90;99.90
33803;DHT22;20110;53.120;5.786;2023-05-18T09:56:16;14.90;99.90
33803;DHT22;20110;53.120;5.786;2023-05-18T09:58:42;15.00;99.90
33803;DHT22;20110;53.120;5.786;2023-05-18T10:01:09;15.10;99.90
33803;DHT22;20110;53.120;5.786;2023-05-18T10:03:36;15.20;99.90
33803;DHT22;20110;53.120;5.786;2023-05-18T10:06:08;15.40;99.90
33803;DHT22;20110;53.120;5.786;2023-05-18T10:08:38;15.60;99.90
33803;DHT22;20110;53.120;5.786;2023-05-18T10:11:04;15.70;99.90
33803;DHT22;20110;53.120;5.786;2023-05-18T10:13:32;15.40;99.90
33803;DHT22;20110;53.120;5.786;2023-05-18T10:16:01;15.70;99.90
33803;DHT22;20110;53.120;5.786;2023-05-18T10:18:30;15.80;99.90
33803;DHT22;20110;53.120;5.786;2023-05-18T10:20:59;15.80;99.90
33803;DHT22;20110;53.120;5.786;2023-05-18T10:23:35;15.90;99.90
33803;DHT22;20110;53.120;5.786;2023-05-18T10:26:07;15.80;99.90
33803;DHT22;20110;53.120;5.786;2023-05-18T10:28:41;16.10;99.90
33803;DHT22;20110;53.120;5.786;2023-05-18T10:31:09;16.10;99.90
33803;DHT22;20110;53.120;5.786;2023-05-18T10:33:36;16.30;99.90
33803;DHT22;20110;53.120;5.786;2023-05-18T10:36:03;15.90;99.90
33803;DHT22;20110;53.120;5.786;2023-05-18T10:38:31;16.20;99.90
33803;DHT22;20110;53.120;5.786;2023-05-18T10:40:59;16.70;99.90
33803;DHT22;20110;53.120;5.786;2023-05-18T10:43:27;17.50;99.90
33803;DHT22;20110;53.120;5.786;2023-05-18T10:48:25;17.90;99.90
33803;DHT22;20110;53.120;5.786;2023-05-18T10:50:55;18.50;99.90
33803;DHT22;20110;53.120;5.786;2023-05-18T10:53:24;19.10;99.90
33803;DHT22;20110;53.120;5.786;2023-05-18T10:55:52;18.80;99.90
33803;DHT22;20110;53.120;5.786;2023-05-18T10:58:20;18.40;95.40
33803;DHT22;20110;53.120;5.786;2023-05-18T11:00:50;18.30;99.50
33803;DHT22;20110;53.120;5.786;2023-05-18T11:03:19;18.30;99.80
33803;DHT22;20110;53.120;5.786;2023-05-18T11:05:50;18.50;95.00
33803;DHT22;20110;53.120;5.786;2023-05-18T11:08:27;18.70;92.10
33803;DHT22;20110;53.120;5.786;2023-05-18T11:11:04;19.20;96.70
33803;DHT22;20110;53.120;5.786;2023-05-18T11:13:33;19.40;99.50
33803;DHT22;20110;53.120;5.786;2023-05-18T11:16:03;19.00;85.50
33803;DHT22;20110;53.120;5.786;2023-05-18T11:21:00;18.50;84.40
33803;DHT22;20110;53.120;5.786;2023-05-18T11:23:31;18.50;74.10
33803;DHT22;20110;53.120;5.786;2023-05-18T11:26:00;18.60;77.90
33803;DHT22;20110;53.120;5.786;2023-05-18T11:28:27;18.20;63.40
33803;DHT22;20110;53.120;5.786;2023-05-18T11:30:53;18.20;79.40
33803;DHT22;20110;53.120;5.786;2023-05-18T11:33:23;18.50;75.00
33803;DHT22;20110;53.120;5.786;2023-05-18T11:39:02;19.10;78.40
33803;DHT22;20110;53.120;5.786;2023-05-18T11:41:34;18.50;49.00
33803;DHT22;20110;53.120;5.786;2023-05-18T11:46:53;18.80;70.40
33803;DHT22;20110;53.120;5.786;2023-05-18T11:49:41;19.00;62.70
33803;DHT22;20110;53.120;5.786;2023-05-18T11:54:53;19.30;67.70
33803;DHT22;20110;53.120;5.786;2023-05-18T11:57:23;19.00;55.70
33803;DHT22;20110;53.120;5.786;2023-05-18T11:59:58;18.90;68.50
33803;DHT22;20110;53.120;5.786;2023-05-18T12:02:30;19.10;62.30
33803;DHT22;20110;53.120;5.786;2023-05-18T12:04:58;19.30;49.30
33803;DHT22;20110;53.120;5.786;2023-05-18T12:07:26;19.10;52.20
33803;DHT22;20110;53.120;5.786;2023-05-18T12:10:02;19.30;52.70
33803;DHT22;20110;53.120;5.786;2023-05-18T12:12:29;19.00;55.00
33803;DHT22;20110;53.120;5.786;2023-05-18T12:14:58;18.90;51.60
33803;DHT22;20110;53.120;5.786;2023-05-18T12:17:43;18.70;52.90
33803;DHT22;20110;53.120;5.786;2023-05-18T12:20:21;18.90;57.00
33803;DHT22;20110;53.120;5.786;2023-05-18T12:22:53;19.10;51.60
33803;DHT22;20110;53.120;5.786;2023-05-18T12:25:22;19.10;48.00
33803;DHT22;20110;53.120;5.786;2023-05-18T12:27:50;19.30;48.70
33803;DHT22;20110;53.120;5.786;2023-05-18T12:30:22;19.20;53.40
33803;DHT22;20110;53.120;5.786;2023-05-18T12:32:51;19.10;48.10
33803;DHT22;20110;53.120;5.786;2023-05-18T12:35:25;18.90;49.50
33803;DHT22;20110;53.120;5.786;2023-05-18T12:37:52;19.10;53.00
33803;DHT22;20110;53.120;5.786;2023-05-18T12:40:22;19.30;47.30
33803;DHT22;20110;53.120;5.786;2023-05-18T12:42:54;18.90;50.90
33803;DHT22;20110;53.120;5.786;2023-05-18T12:45:25;19.00;47.90
33803;DHT22;20110;53.120;5.786;2023-05-18T12:47:52;18.50;37.90
33803;DHT22;20110;53.120;5.786;2023-05-18T12:50:23;18.10;32.20
33803;DHT22;20110;53.120;5.786;2023-05-18T12:52:54;18.10;34.20
33803;DHT22;20110;53.120;5.786;2023-05-18T12:55:21;18.20;29.10
33803;DHT22;20110;53.120;5.786;2023-05-18T12:58:04;18.20;33.90
33803;DHT22;20110;53.120;5.786;2023-05-18T13:00:44;18.50;56.30
33803;DHT22;20110;53.120;5.786;2023-05-18T13:03:12;18.60;40.00
33803;DHT22;20110;53.120;5.786;2023-05-18T13:05:39;18.50;38.30
33803;DHT22;20110;53.120;5.786;2023-05-18T13:08:07;18.50;47.20
33803;DHT22;20110;53.120;5.786;2023-05-18T13:10:33;18.50;40.60
33803;DHT22;20110;53.120;5.786;2023-05-18T13:13:00;18.20;44.80
33803;DHT22;20110;53.120;5.786;2023-05-18T13:15:34;17.70;52.20
33803;DHT22;20110;53.120;5.786;2023-05-18T13:18:08;17.90;56.10
33803;DHT22;20110;53.120;5.786;2023-05-18T13:20:46;18.20;59.60
33803;DHT22;20110;53.120;5.786;2023-05-18T13:23:20;18.30;55.00
33803;DHT22;20110;53.120;5.786;2023-05-18T13:25:48;18.60;53.70
33803;DHT22;20110;53.120;5.786;2023-05-18T13:28:16;18.40;48.40
33803;DHT22;20110;53.120;5.786;2023-05-18T13:30:44;18.30;44.50
33803;DHT22;20110;53.120;5.786;2023-05-18T13:33:12;17.90;41.70
33803;DHT22;20110;53.120;5.786;2023-05-18T13:35:41;17.30;49.70
33803;DHT22;20110;53.120;5.786;2023-05-18T13:38:11;17.10;52.40
33803;DHT22;20110;53.120;5.786;2023-05-18T13:40:39;17.50;64.20
33803;DHT22;20110;53.120;5.786;2023-05-18T13:43:06;17.70;49.20
33803;DHT22;20110;53.120;5.786;2023-05-18T13:45:34;18.00;56.30
33803;DHT22;20110;53.120;5.786;2023-05-18T13:48:00;17.40;54.00
33803;DHT22;20110;53.120;5.786;2023-05-18T13:50:28;17.00;44.50
33803;DHT22;20110;53.120;5.786;2023-05-18T13:52:54;16.80;51.10
33803;DHT22;20110;53.120;5.786;2023-05-18T13:55:20;16.70;47.20
33803;DHT22;20110;53.120;5.786;2023-05-18T13:57:46;16.90;59.90
33803;DHT22;20110;53.120;5.786;2023-05-18T14:00:14;16.90;64.00
33803;DHT22;20110;53.120;5.786;2023-05-18T14:02:43;17.00;61.00
33803;DHT22;20110;53.120;5.786;2023-05-18T14:05:11;16.70;60.00
33803;DHT22;20110;53.120;5.786;2023-05-18T14:07:39;16.70;65.80
33803;DHT22;20110;53.120;5.786;2023-05-18T14:10:07;16.80;66.80
33803;DHT22;20110;53.120;5.786;2023-05-18T14:12:34;16.60;65.30
33803;DHT22;20110;53.120;5.786;2023-05-18T14:15:01;16.50;62.40
33803;DHT22;20110;53.120;5.786;2023-05-18T14:17:27;16.40;71.40
33803;DHT22;20110;53.120;5.786;2023-05-18T14:19:57;16.50;69.40
33803;DHT22;20110;53.120;5.786;2023-05-18T14:22:24;16.20;73.30
33803;DHT22;20110;53.120;5.786;2023-05-18T14:24:52;16.00;69.40
33803;DHT22;20110;53.120;5.786;2023-05-18T14:27:18;15.70;72.20
33803;DHT22;20110;53.120;5.786;2023-05-18T14:29:47;15.70;79.10
33803;DHT22;20110;53.120;5.786;2023-05-18T14:32:14;15.60;74.80
33803;DHT22;20110;53.120;5.786;2023-05-18T14:34:40;15.50;80.30
33803;DHT22;20110;53.120;5.786;2023-05-18T14:37:07;15.60;86.80
33803;DHT22;20110;53.120;5.786;2023-05-18T14:39:33;15.60;79.00
33803;DHT22;20110;53.120;5.786;2023-05-18T14:42:00;15.50;86.60
33803;DHT22;20110;53.120;5.786;2023-05-18T14:44:26;15.40;79.10
33803;DHT22;20110;53.120;5.786;2023-05-18T14:46:51;15.40;86.60
33803;DHT22;20110;53.120;5.786;2023-05-18T14:49:17;15.50;84.80
33803;DHT22;20110;53.120;5.786;2023-05-18T14:51:43;15.30;89.00
33803;DHT22;20110;53.120;5.786;2023-05-18T14:54:09;15.00;82.00
33803;DHT22;20110;53.120;5.786;2023-05-18T14:56:35;14.70;92.70
33803;DHT22;20110;53.120;5.786;2023-05-18T14:59:01;14.70;94.60
33803;DHT22;20110;53.120;5.786;2023-05-18T15:01:27;14.50;96.30
33803;DHT22;20110;53.120;5.786;2023-05-18T15:03:52;14.30;99.90
33803;DHT22;20110;53.120;5.786;2023-05-18T15:06:18;14.20;99.90
33803;DHT22;20110;53.120;5.786;2023-05-18T15:08:44;14.20;99.90
33803;DHT22;20110;53.120;5.786;2023-05-18T15:11:10;14.00;99.90
33803;DHT22;20110;53.120;5.786;2023-05-18T15:13:36;14.00;99.90
33803;DHT22;20110;53.120;5.786;2023-05-18T15:16:02;14.00;99.90
33803;DHT22;20110;53.120;5.786;2023-05-18T15:18:28;14.00;99.90
33803;DHT22;20110;53.120;5.786;2023-05-18T15:20:53;14.20;99.90
33803;DHT22;20110;53.120;5.786;2023-05-18T15:23:19;14.10;99.90
33803;DHT22;20110;53.120;5.786;2023-05-18T15:25:45;13.60;99.90
33803;DHT22;20110;53.120;5.786;2023-05-18T15:28:11;13.50;99.90
33803;DHT22;20110;53.120;5.786;2023-05-18T15:30:38;13.60;99.90
33803;DHT22;20110;53.120;5.786;2023-05-18T15:33:04;13.60;99.90
33803;DHT22;20110;53.120;5.786;2023-05-18T15:35:31;13.60;99.90
33803;DHT22;20110;53.120;5.786;2023-05-18T15:37:59;13.60;99.90
33803;DHT22;20110;53.120;5.786;2023-05-18T15:40:25;13.50;99.90
33803;DHT22;20110;53.120;5.786;2023-05-18T15:42:50;13.50;99.90
33803;DHT22;20110;53.120;5.786;2023-05-18T15:45:16;13.50;99.90
33803;DHT22;20110;53.120;5.786;2023-05-18T15:47:42;13.60;99.90
33803;DHT22;20110;53.120;5.786;2023-05-18T15:50:08;13.50;99.90
33803;DHT22;20110;53.120;5.786;2023-05-18T15:52:34;13.50;99.90
33803;DHT22;20110;53.120;5.786;2023-05-18T15:55:00;13.50;99.90
33803;DHT22;20110;53.120;5.786;2023-05-18T15:57:26;13.60;99.90
33803;DHT22;20110;53.120;5.786;2023-05-18T15:59:51;13.60;99.90
33803;DHT22;20110;53.120;5.786;2023-05-18T16:02:17;13.70;99.90
33803;DHT22;20110;53.120;5.786;2023-05-18T16:04:43;13.60;99.90